createdAt,value
2023-07-03T00:00:33.947Z,62.41
2023-07-03T00:03:24.400Z,62.46
2023-07-03T00:05:53.226Z,62.47
2023-07-03T00:08:22.372Z,62.86
2023-07-03T00:10:51.121Z,62.63
2023-07-03T00:13:20.152Z,62.60
2023-07-03T00:15:49.213Z,62.24
2023-07-03T00:18:18.412Z,62.47
2023-07-03T00:20:48.836Z,62.44
2023-07-03T00:23:18.071Z,62.89
2023-07-03T00:25:47.630Z,62.54
2023-07-03T00:28:16.836Z,62.61
2023-07-03T00:30:46.126Z,62.71
2023-07-03T00:33:15.631Z,62.76
2023-07-03T00:35:46.033Z,62.95
2023-07-03T00:38:16.498Z,62.95
2023-07-03T00:40:45.372Z,62.72
2023-07-03T00:43:15.478Z,62.91
2023-07-03T00:45:44.549Z,63.11
2023-07-03T00:48:13.766Z,63.13
2023-07-03T00:50:42.564Z,63.41
2023-07-03T00:53:14.855Z,63.45
2023-07-03T00:55:46.207Z,63.34
2023-07-03T00:58:16.582Z,63.56
2023-07-03T01:01:02.747Z,63.96
2023-07-03T01:03:42.692Z,63.75
2023-07-03T01:06:20.408Z,64.30
2023-07-03T01:08:59.715Z,64.56
2023-07-03T01:11:31.582Z,63.72
2023-07-03T01:14:04.481Z,63.91
2023-07-03T01:16:36.282Z,64.22
2023-07-03T01:19:14.599Z,64.55
2023-07-03T01:21:52.124Z,64.37
2023-07-03T01:24:43.713Z,64.93
2023-07-03T01:27:18.813Z,64.91
2023-07-03T01:29:51.774Z,65.68
2023-07-03T01:32:23.405Z,65.47
2023-07-03T01:34:57.384Z,65.01
2023-07-03T01:37:29.906Z,65.01
2023-07-03T01:40:02.202Z,65.53
2023-07-03T01:42:34.653Z,65.64
2023-07-03T01:45:04.056Z,65.90
2023-07-03T01:47:33.464Z,65.89
2023-07-03T01:50:02.800Z,66.21
2023-07-03T01:52:40.211Z,66.03
2023-07-03T01:55:23.092Z,65.87
2023-07-03T01:58:04.749Z,66.31
2023-07-03T02:00:42.790Z,66.49
2023-07-03T02:03:26.433Z,66.97
2023-07-03T02:06:00.031Z,67.67
2023-07-03T02:08:31.864Z,67.89
2023-07-03T02:11:03.031Z,67.81
2023-07-03T02:13:31.813Z,67.94
2023-07-03T02:16:02.515Z,68.47
2023-07-03T02:18:31.362Z,68.30
2023-07-03T02:21:01.752Z,68.39
2023-07-03T02:23:30.629Z,68.68
2023-07-03T02:25:59.681Z,68.99
2023-07-03T02:28:29.959Z,69.37
2023-07-03T02:30:59.368Z,69.07
2023-07-03T02:33:28.182Z,69.31
2023-07-03T02:35:57.224Z,69.28
2023-07-03T02:38:26.068Z,69.12
2023-07-03T02:40:55.461Z,69.08
2023-07-03T02:43:24.307Z,69.59
2023-07-03T02:45:56.398Z,69.62
2023-07-03T02:48:25.331Z,69.43
2023-07-03T02:50:54.582Z,69.61
2023-07-03T02:53:25.264Z,69.71
2023-07-03T02:56:01.213Z,69.92
2023-07-03T02:58:30.601Z,70.11
2023-07-03T03:01:02.320Z,70.00
2023-07-03T03:03:32.525Z,70.09
2023-07-03T03:06:02.005Z,70.08
2023-07-03T03:08:31.141Z,70.35
2023-07-03T03:11:01.378Z,70.22
2023-07-03T03:13:30.564Z,70.33
2023-07-03T03:16:02.874Z,70.59
2023-07-03T03:18:31.729Z,70.55
2023-07-03T03:21:00.908Z,70.68
2023-07-03T03:23:29.794Z,71.05
2023-07-03T03:25:58.896Z,71.28
2023-07-03T03:28:27.789Z,71.20
2023-07-03T03:30:57.249Z,70.82
2023-07-03T03:33:27.520Z,70.84
2023-07-03T03:35:56.566Z,70.99
2023-07-03T03:38:25.420Z,70.86
2023-07-03T03:41:00.788Z,70.71
2023-07-03T03:43:34.260Z,70.94
2023-07-03T03:46:04.730Z,70.93
2023-07-03T03:48:37.360Z,70.73
2023-07-03T03:51:10.309Z,70.80
2023-07-03T03:53:39.411Z,70.60
2023-07-03T03:56:09.402Z,70.62
2023-07-03T03:58:39.918Z,70.85
2023-07-03T04:01:08.985Z,70.98
2023-07-03T04:03:39.201Z,70.39
2023-07-03T04:06:10.357Z,70.53
2023-07-03T04:08:39.457Z,70.05
2023-07-03T04:11:08.593Z,70.36
2023-07-03T04:18:09.521Z,69.28
2023-07-03T04:20:39.640Z,68.94
2023-07-03T04:23:08.731Z,67.62
2023-07-03T04:25:37.497Z,67.24
2023-07-03T04:28:07.433Z,67.54
2023-07-03T04:30:36.277Z,67.66
2023-07-03T04:33:05.597Z,67.55
2023-07-03T04:35:34.720Z,67.00
2023-07-03T04:38:05.574Z,66.57
2023-07-03T04:40:34.403Z,66.63
2023-07-03T04:43:03.625Z,66.35
2023-07-03T04:50:04.083Z,65.01
2023-07-03T04:52:32.834Z,63.75
2023-07-03T04:55:04.153Z,62.81
2023-07-03T04:57:32.892Z,62.12
2023-07-03T05:04:33.644Z,60.01
2023-07-03T05:07:02.456Z,60.50
2023-07-03T05:09:31.561Z,59.29
2023-07-03T05:12:01.721Z,58.59
2023-07-03T05:14:30.805Z,57.68
2023-07-03T05:16:59.636Z,56.16
2023-07-03T05:19:28.678Z,55.25
2023-07-03T05:21:57.457Z,55.09
2023-07-03T05:24:26.610Z,54.59
2023-07-03T05:26:55.502Z,54.05
2023-07-03T05:29:26.054Z,53.92
2023-07-03T05:31:55.810Z,53.95
2023-07-03T05:34:24.933Z,53.15
2023-07-03T05:36:54.279Z,51.59
2023-07-03T05:39:23.370Z,52.89
2023-07-03T05:41:52.158Z,52.38
2023-07-03T05:48:54.066Z,48.31
2023-07-03T05:51:22.968Z,46.78
2023-07-03T05:53:52.640Z,45.33
2023-07-03T05:56:21.716Z,44.88
2023-07-03T05:58:50.755Z,44.17
2023-07-03T06:01:19.653Z,43.10
2023-07-03T06:03:49.297Z,43.45
2023-07-03T06:06:19.502Z,42.69
2023-07-03T06:08:48.589Z,42.89
2023-07-03T06:11:17.445Z,42.62
2023-07-03T06:13:46.574Z,42.43
2023-07-03T06:16:16.824Z,42.79
2023-07-03T06:18:46.044Z,42.41
2023-07-03T06:21:14.873Z,41.88
2023-07-03T06:23:45.272Z,41.40
2023-07-03T06:26:13.985Z,42.29
2023-07-03T06:28:43.234Z,40.16
2023-07-03T06:31:12.048Z,40.04
2023-07-03T06:33:41.231Z,40.16
2023-07-03T06:36:10.238Z,39.52
2023-07-03T06:43:14.003Z,39.61
2023-07-03T06:45:42.786Z,39.57
2023-07-03T06:48:11.861Z,39.57
2023-07-03T06:50:40.628Z,39.27
2023-07-03T06:53:09.796Z,38.62
2023-07-03T06:55:38.611Z,38.93
2023-07-03T06:58:07.630Z,38.13
2023-07-03T07:00:38.266Z,38.62
2023-07-03T07:03:07.520Z,38.66
2023-07-03T07:05:36.476Z,37.17
2023-07-03T07:08:06.361Z,37.67
2023-07-03T07:10:40.142Z,37.82
2023-07-03T07:13:10.752Z,36.96
2023-07-03T07:15:42.948Z,35.88
2023-07-03T07:18:12.418Z,37.20
2023-07-03T07:20:42.936Z,35.90
2023-07-03T07:23:13.466Z,34.80
2023-07-03T07:25:42.461Z,34.53
2023-07-03T07:28:11.548Z,34.92
2023-07-03T07:30:41.748Z,33.66
2023-07-03T07:33:10.805Z,34.01
2023-07-03T07:35:40.141Z,35.08
2023-07-03T07:38:09.303Z,32.74
2023-07-03T07:40:38.199Z,32.54
2023-07-03T07:43:07.552Z,33.03
2023-07-03T07:45:38.650Z,33.05
2023-07-03T07:48:10.272Z,33.58
2023-07-03T07:50:39.269Z,33.74
2023-07-03T07:53:08.365Z,33.94
2023-07-03T08:00:11.804Z,32.68
2023-07-03T08:02:45.578Z,32.56
2023-07-03T08:05:16.853Z,32.22
2023-07-03T08:07:46.213Z,32.56
2023-07-03T08:10:15.812Z,32.71
2023-07-03T08:12:44.999Z,32.51
2023-07-03T08:15:15.072Z,32.45
2023-07-03T08:17:43.878Z,33.08
2023-07-03T08:20:15.686Z,32.83
2023-07-03T08:22:44.570Z,33.29
2023-07-03T08:25:13.632Z,32.65
2023-07-03T08:32:16.074Z,32.15
2023-07-03T08:37:08.252Z,31.83
2023-07-03T08:37:35.856Z,31.81
2023-07-03T08:44:38.845Z,32.82
2023-07-03T08:47:14.234Z,32.97
2023-07-03T08:49:46.817Z,32.91
2023-07-03T08:52:25.645Z,33.89
2023-07-03T08:54:58.196Z,32.85
2023-07-03T09:02:14.047Z,32.99
2023-07-03T09:09:24.682Z,32.50
2023-07-03T09:12:09.309Z,33.53
2023-07-03T09:14:48.503Z,34.07
2023-07-03T09:17:17.793Z,34.32
2023-07-03T09:19:52.515Z,34.26
2023-07-03T09:22:43.883Z,33.16
2023-07-03T09:25:22.006Z,32.20
2023-07-03T09:27:59.071Z,33.55
2023-07-03T09:30:28.463Z,31.88
2023-07-03T09:32:57.361Z,32.11
2023-07-03T09:35:36.398Z,31.00
2023-07-03T09:38:12.776Z,31.39
2023-07-03T09:40:46.905Z,31.72
2023-07-03T09:47:57.220Z,33.08
2023-07-03T09:50:32.713Z,33.27
2023-07-03T09:53:09.781Z,33.85
2023-07-03T09:55:38.970Z,34.33
2023-07-03T09:58:16.724Z,32.13
2023-07-03T10:00:49.664Z,32.05
2023-07-03T10:08:31.503Z,31.36
2023-07-03T10:13:43.921Z,32.75
2023-07-03T10:16:16.544Z,31.19
2023-07-03T10:18:52.702Z,31.53
2023-07-03T10:21:24.185Z,30.95
2023-07-03T10:28:32.516Z,30.87
2023-07-03T10:31:07.712Z,30.64
2023-07-03T10:33:45.632Z,31.16
2023-07-03T10:36:21.946Z,31.02
2023-07-03T10:38:58.783Z,31.59
2023-07-03T10:41:32.634Z,30.31
2023-07-03T10:44:09.589Z,29.51
2023-07-03T10:46:44.996Z,30.75
2023-07-03T10:49:22.515Z,30.32
2023-07-03T10:52:04.695Z,31.67
2023-07-03T10:54:40.340Z,31.07
2023-07-03T10:57:17.991Z,29.50
2023-07-03T10:59:53.770Z,30.50
2023-07-03T11:02:36.807Z,31.81
2023-07-03T11:05:17.910Z,30.23
2023-07-03T11:07:59.213Z,28.82
2023-07-03T11:10:43.118Z,28.51
2023-07-03T11:13:19.590Z,28.08
2023-07-03T11:16:00.963Z,29.09
2023-07-03T11:24:25.889Z,29.77
2023-07-03T11:29:39.280Z,31.94
2023-07-03T11:32:10.971Z,32.53
2023-07-03T11:40:36.723Z,33.81
2023-07-03T11:44:48.609Z,33.36
2023-07-03T11:47:27.220Z,33.47
2023-07-03T11:50:01.801Z,31.73
2023-07-03T11:52:38.093Z,32.92
2023-07-03T11:55:12.329Z,31.62
2023-07-03T11:57:49.935Z,33.54
2023-07-03T12:00:30.426Z,33.37
2023-07-03T12:03:02.542Z,32.14
2023-07-03T12:10:48.182Z,31.88
2023-07-03T12:13:54.198Z,29.66
2023-07-03T12:16:34.397Z,29.55
2023-07-03T12:19:09.757Z,29.14
2023-07-03T12:21:45.893Z,29.46
2023-07-03T12:24:26.271Z,30.21
2023-07-03T12:27:03.541Z,30.47
2023-07-03T12:34:08.048Z,32.14
2023-07-03T12:36:40.395Z,31.88
2023-07-03T12:39:17.113Z,33.09
2023-07-03T12:46:29.092Z,31.77
2023-07-03T12:49:21.566Z,32.10
2023-07-03T12:51:55.395Z,32.58
2023-07-03T12:54:25.029Z,32.54
2023-07-03T12:56:55.241Z,32.18
2023-07-03T12:59:28.053Z,32.00
2023-07-03T13:01:57.489Z,31.76
2023-07-03T13:04:34.116Z,31.98
2023-07-03T13:07:05.419Z,31.90
2023-07-03T13:09:34.813Z,32.54
2023-07-03T13:12:18.854Z,32.45
2023-07-03T13:15:03.217Z,33.29
2023-07-03T13:17:33.090Z,32.18
2023-07-03T13:20:26.138Z,33.03
2023-07-03T13:22:59.566Z,31.66
2023-07-03T13:30:21.005Z,30.99
2023-07-03T13:33:01.600Z,30.12
2023-07-03T13:35:37.598Z,31.39
2023-07-03T13:38:30.711Z,31.96
2023-07-03T13:41:02.098Z,32.78
2023-07-03T13:43:34.186Z,31.63
2023-07-03T13:46:03.392Z,31.05
2023-07-03T13:48:32.314Z,31.95
2023-07-03T13:51:02.860Z,31.02
2023-07-03T13:53:33.056Z,31.82
2023-07-03T13:56:03.695Z,32.30
2023-07-03T13:58:33.064Z,32.85
2023-07-03T14:01:10.443Z,32.07
2023-07-03T14:03:46.612Z,32.51
2023-07-03T14:06:18.282Z,32.44
2023-07-03T14:08:47.081Z,32.53
2023-07-03T14:15:48.781Z,33.65
2023-07-03T14:18:18.813Z,33.78
2023-07-03T14:20:50.214Z,34.01
2023-07-03T14:23:20.537Z,34.45
2023-07-03T14:25:49.996Z,33.28
2023-07-03T14:28:19.123Z,34.26
2023-07-03T14:30:49.371Z,34.09
2023-07-03T14:33:18.359Z,33.86
2023-07-03T14:35:49.502Z,33.86
2023-07-03T14:38:19.917Z,34.31
2023-07-03T14:40:49.205Z,34.73
2023-07-03T14:43:18.110Z,34.33
2023-07-03T14:50:19.340Z,35.85
2023-07-03T14:52:50.252Z,36.23
2023-07-03T14:55:20.991Z,35.81
2023-07-03T14:57:51.929Z,35.62
2023-07-03T15:00:21.890Z,35.87
2023-07-03T15:02:51.933Z,36.35
2023-07-03T15:05:22.356Z,36.22
2023-07-03T15:07:53.237Z,35.24
2023-07-03T15:10:24.113Z,36.11
2023-07-03T15:12:52.910Z,35.62
2023-07-03T15:15:22.191Z,35.08
2023-07-03T15:17:53.057Z,35.26
2023-07-03T15:20:22.200Z,35.94
2023-07-03T15:22:54.989Z,35.44
2023-07-03T15:25:25.566Z,36.70
2023-07-03T15:27:54.464Z,36.77
2023-07-03T15:30:24.021Z,36.48
2023-07-03T15:32:54.571Z,35.88
2023-07-03T15:39:56.580Z,37.07
2023-07-03T15:42:26.896Z,37.08
2023-07-03T15:44:58.894Z,37.73
2023-07-03T15:47:28.457Z,37.63
2023-07-03T15:49:58.533Z,37.86
2023-07-03T15:52:27.265Z,37.75
2023-07-03T15:54:56.415Z,37.54
2023-07-03T15:57:26.669Z,38.29
2023-07-03T15:59:55.798Z,37.68
2023-07-03T16:02:25.236Z,37.97
2023-07-03T16:04:54.522Z,38.26
2023-07-03T16:07:23.417Z,38.57
2023-07-03T16:09:52.432Z,38.02
2023-07-03T16:12:21.345Z,37.78
2023-07-03T16:14:52.577Z,36.30
2023-07-03T16:21:53.431Z,34.89
2023-07-03T16:24:22.215Z,34.89
2023-07-03T16:26:51.406Z,34.94
2023-07-03T16:29:20.134Z,34.06
2023-07-03T16:31:50.747Z,32.43
2023-07-03T16:34:19.562Z,32.38
2023-07-03T16:36:48.616Z,32.57
2023-07-03T16:39:17.407Z,32.69
2023-07-03T16:41:46.590Z,32.74
2023-07-03T16:44:15.571Z,32.72
2023-07-03T16:46:44.642Z,33.04
2023-07-03T16:49:14.820Z,33.16
2023-07-03T16:51:43.904Z,33.17
2023-07-03T16:54:12.733Z,33.19
2023-07-03T16:56:41.736Z,33.48
2023-07-03T16:59:10.603Z,34.13
2023-07-03T17:06:18.177Z,34.48
2023-07-03T17:08:48.899Z,34.68
2023-07-03T17:11:17.950Z,33.87
2023-07-03T17:13:49.046Z,33.92
2023-07-03T17:16:18.602Z,33.91
2023-07-03T17:18:47.854Z,34.86
2023-07-03T17:21:18.079Z,35.15
2023-07-03T17:23:49.792Z,35.66
2023-07-03T17:26:19.008Z,34.42
2023-07-03T17:28:49.124Z,34.31
2023-07-03T17:31:24.863Z,34.05
2023-07-03T17:33:55.362Z,33.73
2023-07-03T17:36:26.513Z,33.43
2023-07-03T17:38:55.745Z,33.94
2023-07-03T17:41:25.525Z,34.30
2023-07-03T17:43:54.728Z,34.54
2023-07-03T17:46:23.873Z,34.77
2023-07-03T17:48:53.084Z,34.66
2023-07-03T17:51:21.929Z,34.54
2023-07-03T17:53:52.376Z,34.76
2023-07-03T17:56:21.864Z,35.38
2023-07-03T17:58:50.934Z,35.26
2023-07-03T18:01:19.758Z,35.24
2023-07-03T18:03:49.156Z,35.73
2023-07-03T18:10:51.897Z,35.38
2023-07-03T18:13:20.867Z,35.84
2023-07-03T18:16:08.030Z,35.92
2023-07-03T18:18:37.013Z,35.70
2023-07-03T18:21:06.329Z,36.14
2023-07-03T18:23:35.279Z,36.33
2023-07-03T18:30:40.236Z,36.28
2023-07-03T18:33:09.142Z,36.42
2023-07-03T18:40:12.795Z,37.22
2023-07-03T18:47:16.387Z,38.59
2023-07-03T18:49:45.503Z,37.92
2023-07-03T18:52:14.537Z,37.96
2023-07-03T18:54:43.399Z,37.16
2023-07-03T18:57:12.489Z,37.11
2023-07-03T18:59:41.742Z,37.56
2023-07-03T19:02:11.591Z,37.64
2023-07-03T19:04:41.778Z,37.61
2023-07-03T19:07:11.078Z,37.69
2023-07-03T19:09:39.851Z,37.64
2023-07-03T19:12:09.657Z,37.49
2023-07-03T19:14:38.620Z,38.35
2023-07-03T19:17:07.846Z,37.62
2023-07-03T19:19:36.785Z,37.99
2023-07-03T19:22:07.924Z,38.32
2023-07-03T19:24:37.108Z,38.28
2023-07-03T19:27:07.729Z,38.04
2023-07-03T19:29:38.072Z,38.41
2023-07-03T19:32:08.214Z,37.97
2023-07-03T19:34:38.823Z,38.23
2023-07-03T19:37:10.166Z,39.53
2023-07-03T19:39:38.984Z,40.62
2023-07-03T19:42:09.401Z,41.18
2023-07-03T19:44:38.198Z,40.96
2023-07-03T19:47:08.183Z,41.87
2023-07-03T19:49:37.083Z,43.03
2023-07-03T19:52:09.213Z,42.21
2023-07-03T19:54:39.050Z,42.53
2023-07-03T19:57:08.125Z,42.68
2023-07-03T19:59:38.004Z,43.29
2023-07-03T20:02:08.397Z,43.08
2023-07-03T20:04:37.998Z,43.03
2023-07-03T20:07:08.651Z,44.12
2023-07-03T20:09:40.278Z,43.82
2023-07-03T20:12:10.125Z,45.28
2023-07-03T20:14:39.712Z,45.08
2023-07-03T20:21:42.843Z,44.84
2023-07-03T20:24:14.643Z,45.87
2023-07-03T20:26:43.818Z,46.44
2023-07-03T20:29:12.964Z,46.26
2023-07-03T20:31:42.483Z,46.62
2023-07-03T20:34:11.280Z,47.57
2023-07-03T20:36:40.313Z,47.78
2023-07-03T20:39:09.146Z,47.67
2023-07-03T20:41:39.599Z,48.24
2023-07-03T20:44:08.517Z,49.01
2023-07-03T20:46:37.591Z,48.43
2023-07-03T20:49:07.588Z,48.08
2023-07-03T20:51:36.699Z,48.40
2023-07-03T20:54:12.455Z,49.16
2023-07-03T20:56:43.190Z,49.64
2023-07-03T20:59:11.911Z,49.79
2023-07-03T21:06:14.979Z,50.25
2023-07-03T21:08:46.207Z,50.47
2023-07-03T21:11:18.399Z,50.63
2023-07-03T21:13:51.118Z,51.10
2023-07-03T21:20:52.178Z,51.10
2023-07-03T21:23:21.398Z,51.82
2023-07-03T21:25:50.674Z,52.07
2023-07-03T21:28:19.858Z,52.33
2023-07-03T21:35:22.811Z,52.33
2023-07-03T21:42:23.311Z,53.06
2023-07-03T21:44:52.136Z,53.10
2023-07-03T21:47:21.278Z,53.96
2023-07-03T21:49:50.910Z,54.64
2023-07-03T21:52:22.228Z,54.60
2023-07-03T21:54:51.078Z,54.70
2023-07-03T21:57:20.500Z,55.33
2023-07-03T21:59:50.641Z,55.41
2023-07-03T22:02:19.705Z,55.21
2023-07-03T22:04:48.656Z,54.95
2023-07-03T22:07:17.872Z,54.84
2023-07-03T22:09:49.000Z,55.10
2023-07-03T22:12:18.091Z,55.15
2023-07-03T22:14:46.830Z,55.82
2023-07-03T22:21:48.292Z,56.31
2023-07-03T22:24:17.336Z,56.86
2023-07-03T22:26:51.092Z,56.59
2023-07-03T22:29:19.835Z,57.33
2023-07-03T22:31:48.960Z,57.74
2023-07-03T22:34:17.857Z,57.42
2023-07-03T22:36:47.293Z,56.73
2023-07-03T22:39:16.020Z,57.79
2023-07-03T22:41:47.877Z,57.56
2023-07-03T22:44:18.108Z,57.65
2023-07-03T22:46:47.127Z,57.74
2023-07-03T22:49:24.472Z,58.22
2023-07-03T22:51:54.446Z,58.21
2023-07-03T22:54:23.726Z,58.55
2023-07-03T22:56:52.744Z,58.97
2023-07-03T22:59:22.780Z,59.06
2023-07-03T23:01:54.458Z,59.23
2023-07-03T23:04:23.542Z,59.12
2023-07-03T23:06:53.131Z,59.34
2023-07-03T23:09:22.071Z,58.47
2023-07-03T23:11:52.389Z,58.72
2023-07-03T23:14:22.588Z,59.55
2023-07-03T23:16:55.506Z,60.40
2023-07-03T23:19:26.017Z,59.82
2023-07-03T23:21:55.869Z,59.51
2023-07-03T23:24:26.209Z,59.64
2023-07-03T23:26:56.873Z,59.64
2023-07-03T23:29:26.979Z,60.65
2023-07-03T23:31:56.752Z,60.52
2023-07-03T23:34:25.425Z,60.84
2023-07-03T23:36:54.989Z,60.59
2023-07-03T23:39:24.248Z,59.95
2023-07-03T23:41:53.847Z,59.90
2023-07-03T23:44:22.587Z,60.01
2023-07-03T23:46:53.090Z,59.89
2023-07-03T23:49:21.932Z,59.84
2023-07-03T23:51:53.352Z,60.05
2023-07-03T23:54:23.629Z,60.07
2023-07-03T23:56:54.031Z,59.62
2023-07-03T23:59:22.885Z,59.00
